Huvudsida
METAR-TAF:

METAR-TAF

Flygplatser :

Roskildes flygplats

Roskilde, Danmark

latitud: 55-35N, longitud: 012-08E, höjd: 44 m

Aktuellt väderrapport

Denna rapport gjordes för 18 minuter sedan, klockan 05:50 UTC
Vind 8 kt från syd/sydost
Temperatur 6°C
Fuktighet 87%
Tryck 1034 hPa
Sikt 10 km eller mer

METAR: EKRK 160550Z AUTO 15008KT 9999NDV NCD 06/04 Q1034

Tid: 07:08 (06:08 UTC)

Väderprognos

Denna rapport gjordes för 41 minuter sedan, klockan 05:27 UTC
Prognos gäller från 16 kl. 06 UTC till 16 kl. 15 UTC
Vind 10 kt från syd/sydost
Sikt 10 km eller mer
Inga moln under 1 500 m eller inga cumulonimbus

TAF: EKRK 160527Z 1606/1615 15010KT CAVOK

Aktuella väderrapporter och prognoser från 4000 flygplatser (METAR- och TAF-rapporter).

De tillgängliga stationerna syns som gula och röda prickar på kartan.

För musen över prickarna för att se namnen på stationerna.

Klicka sedan för att få väderrapporter och prognoser.

För att ändra kartan: Klicka på de gröna knapparna med ett svart kors på för att zooma in; den gröna knappen med ett streck på för att zooma ut; eller på de gröna pilarna för angränsande kartor.


METAR-TAF: